createdAt,value
2019-02-28T00:01:12.772Z,10.73
2019-02-28T00:03:40.642Z,13.83
2019-02-28T00:06:11.750Z,10.73
2019-02-28T00:08:37.641Z,13.80
2019-02-28T00:11:06.040Z,13.50
2019-02-28T00:13:33.811Z,12.57
2019-02-28T00:16:03.281Z,10.73
2019-02-28T00:18:30.832Z,14.20
2019-02-28T00:20:58.485Z,13.43
2019-02-28T00:23:26.128Z,11.53
2019-02-28T00:25:53.787Z,11.90
2019-02-28T00:28:23.147Z,13.03
2019-02-28T00:30:50.818Z,12.43
2019-02-28T00:33:18.450Z,14.97
2019-02-28T00:35:46.088Z,11.53
2019-02-28T00:38:13.740Z,12.37
2019-02-28T00:40:41.395Z,14.27
2019-02-28T00:43:09.044Z,11.10
2019-02-28T00:45:37.369Z,15.60
2019-02-28T00:48:05.210Z,12.63
2019-02-28T00:50:32.852Z,14.30
2019-02-28T00:53:00.511Z,13.03
2019-02-28T00:55:28.157Z,13.77
2019-02-28T00:57:56.040Z,14.07
2019-02-28T01:00:23.758Z,12.97
2019-02-28T01:02:53.263Z,16.40
2019-02-28T01:05:20.763Z,12.53
2019-02-28T01:07:49.090Z,14.37
2019-02-28T01:10:16.844Z,14.73
2019-02-28T01:12:44.503Z,13.83
2019-02-28T01:15:12.149Z,12.07
2019-02-28T01:17:39.814Z,13.40
2019-02-28T01:20:07.459Z,13.83
2019-02-28T01:22:35.121Z,14.07
2019-02-28T01:25:02.771Z,13.90
2019-02-28T01:27:30.417Z,15.40
2019-02-28T01:29:58.051Z,13.80
2019-02-28T01:32:25.703Z,13.53
2019-02-28T01:34:53.362Z,18.03
2019-02-28T01:37:21.918Z,14.77
2019-02-28T01:39:49.749Z,14.40
2019-02-28T01:42:20.162Z,14.07
2019-02-28T01:44:46.756Z,13.50
2019-02-28T01:47:14.413Z,13.87
2019-02-28T01:49:42.056Z,13.37
2019-02-28T01:52:10.609Z,15.57
2019-02-28T01:54:38.547Z,14.30
2019-02-28T01:57:08.989Z,14.73
2019-02-28T01:59:35.552Z,14.03
2019-02-28T02:02:06.750Z,14.90
2019-02-28T02:04:32.573Z,13.80
2019-02-28T02:07:00.489Z,14.10
2019-02-28T02:09:28.239Z,14.90
2019-02-28T02:11:57.985Z,13.27
2019-02-28T02:14:25.256Z,13.30
2019-02-28T02:16:52.928Z,14.60
2019-02-28T02:19:20.583Z,17.60
2019-02-28T02:21:48.223Z,17.93
2019-02-28T02:24:15.876Z,13.67
2019-02-28T02:26:45.166Z,17.97
2019-02-28T02:29:12.882Z,17.70
2019-02-28T02:31:43.343Z,21.07
2019-02-28T02:34:09.890Z,17.77
2019-02-28T02:36:37.528Z,18.30
2019-02-28T02:39:05.202Z,18.33
2019-02-28T02:41:33.693Z,19.67
2019-02-28T02:44:02.392Z,16.03
2019-02-28T02:46:30.038Z,16.77
2019-02-28T02:48:57.699Z,18.00
2019-02-28T02:51:25.349Z,18.23
2019-02-28T02:53:53.010Z,19.33
2019-02-28T02:56:20.655Z,22.47
2019-02-28T02:58:48.320Z,20.37
2019-02-28T03:01:15.981Z,20.73
2019-02-28T03:03:44.558Z,18.53
2019-02-28T03:06:14.233Z,20.13
2019-02-28T03:08:41.710Z,19.67
2019-02-28T03:11:09.356Z,21.93
2019-02-28T03:13:42.120Z,18.67
2019-02-28T03:16:06.372Z,21.77
2019-02-28T03:18:34.032Z,20.30
2019-02-28T03:21:01.679Z,19.63
2019-02-28T03:23:29.348Z,22.23
2019-02-28T03:26:02.061Z,23.67
2019-02-28T03:28:31.440Z,20.47
2019-02-28T03:30:55.697Z,18.63
2019-02-28T03:33:27.183Z,21.10
2019-02-28T03:35:52.701Z,17.87
2019-02-28T03:38:20.363Z,16.40
2019-02-28T03:40:48.003Z,21.60
2019-02-28T03:43:15.654Z,22.73
2019-02-28T03:45:43.315Z,16.27
2019-02-28T03:48:10.966Z,17.07
2019-02-28T03:50:38.610Z,16.37
2019-02-28T03:53:06.254Z,16.40
2019-02-28T03:55:39.822Z,17.60
2019-02-28T03:58:05.535Z,17.07
2019-02-28T04:00:34.090Z,13.27
2019-02-28T04:03:01.943Z,15.93
2019-02-28T04:05:29.575Z,17.57
2019-02-28T04:07:57.215Z,14.73
2019-02-28T04:10:24.862Z,16.50
2019-02-28T04:12:52.513Z,15.17
2019-02-28T04:15:20.231Z,16.17
2019-02-28T04:17:47.980Z,17.20
2019-02-28T04:20:15.613Z,14.23
2019-02-28T04:22:43.265Z,18.10
2019-02-28T04:25:10.903Z,16.87
2019-02-28T04:27:40.365Z,15.63
2019-02-28T04:30:08.400Z,12.50
2019-02-28T04:32:36.255Z,16.57
2019-02-28T04:35:03.901Z,16.90
2019-02-28T04:37:31.529Z,13.73
2019-02-28T04:39:59.176Z,13.13
2019-02-28T04:42:26.904Z,13.60
2019-02-28T04:44:54.565Z,16.43
2019-02-28T04:47:22.206Z,11.53
2019-02-28T04:49:49.855Z,18.07
2019-02-28T04:52:17.504Z,15.03
2019-02-28T04:54:45.152Z,13.67
2019-02-28T04:57:12.786Z,19.27
2019-02-28T04:59:40.436Z,14.60
2019-02-28T05:02:08.085Z,15.53
2019-02-28T05:04:36.147Z,15.83
2019-02-28T05:07:04.449Z,16.53
2019-02-28T05:09:32.102Z,17.63
2019-02-28T05:12:02.493Z,16.87
2019-02-28T05:14:29.108Z,14.23
2019-02-28T05:16:56.750Z,14.77
2019-02-28T05:19:24.390Z,18.37
2019-02-28T05:21:53.581Z,14.77
2019-02-28T05:24:21.379Z,18.87
2019-02-28T05:26:49.033Z,15.63
2019-02-28T05:29:16.672Z,17.07
2019-02-28T05:31:44.311Z,15.20
2019-02-28T05:34:13.177Z,17.93
2019-02-28T05:36:41.295Z,14.83
2019-02-28T05:39:08.968Z,15.67
2019-02-28T05:41:36.679Z,17.07
2019-02-28T05:44:06.224Z,17.93
2019-02-28T05:46:33.695Z,16.53
2019-02-28T05:49:01.332Z,13.93
2019-02-28T05:51:28.980Z,14.60
2019-02-28T05:53:56.623Z,12.03
2019-02-28T05:56:24.265Z,17.50
2019-02-28T05:58:52.561Z,10.83
2019-02-28T06:01:20.945Z,10.87
2019-02-28T06:03:48.592Z,11.27
2019-02-28T06:06:17.288Z,9.97
2019-02-28T06:08:45.592Z,12.50
2019-02-28T06:11:15.286Z,9.53
2019-02-28T06:13:42.576Z,9.80
2019-02-28T06:16:12.324Z,12.17
2019-02-28T06:18:39.618Z,11.13
2019-02-28T06:21:07.250Z,9.33
2019-02-28T06:23:34.911Z,9.73
2019-02-28T06:26:02.561Z,11.43
2019-02-28T06:28:31.030Z,10.27
2019-02-28T06:31:00.361Z,12.00
2019-02-28T06:33:30.690Z,11.97
2019-02-28T06:35:57.597Z,11.33
2019-02-28T06:38:25.227Z,9.27
2019-02-28T06:40:52.872Z,14.90
2019-02-28T06:43:20.517Z,12.90
2019-02-28T06:45:48.154Z,8.03
2019-02-28T06:48:15.796Z,13.73
2019-02-28T06:50:44.679Z,12.67
2019-02-28T06:53:12.804Z,11.33
2019-02-28T06:55:47.696Z,12.90
2019-02-28T06:58:15.339Z,13.33
2019-02-28T07:00:44.229Z,13.57
2019-02-28T07:03:12.399Z,11.87
2019-02-28T07:05:40.084Z,11.93
2019-02-28T07:08:07.720Z,12.93
2019-02-28T07:10:35.395Z,14.07
2019-02-28T07:13:04.471Z,15.77
2019-02-28T07:15:32.379Z,18.70
2019-02-28T07:18:00.015Z,13.07
2019-02-28T07:20:27.656Z,11.80
2019-02-28T07:22:55.861Z,13.67
2019-02-28T07:25:23.638Z,15.67
2019-02-28T07:27:51.286Z,14.03
2019-02-28T07:30:19.340Z,15.43
2019-02-28T07:32:47.280Z,19.07
2019-02-28T07:35:14.921Z,14.77
2019-02-28T07:37:42.563Z,17.30
2019-02-28T07:40:15.545Z,16.90
2019-02-28T07:42:39.586Z,15.23
2019-02-28T07:45:07.247Z,21.17
2019-02-28T07:47:34.909Z,24.67
2019-02-28T07:50:02.568Z,19.57
2019-02-28T07:52:33.396Z,20.10
2019-02-28T07:54:59.603Z,19.17
2019-02-28T07:57:27.263Z,21.60
2019-02-28T07:59:54.916Z,26.70
2019-02-28T08:02:22.574Z,29.23
2019-02-28T08:04:50.636Z,26.27
2019-02-28T08:07:19.576Z,26.60
2019-02-28T08:09:47.241Z,27.20
2019-02-28T08:12:14.918Z,27.87
2019-02-28T08:14:43.610Z,29.37
2019-02-28T08:17:11.940Z,28.23
2019-02-28T08:19:39.612Z,28.17
2019-02-28T08:22:07.279Z,25.17
2019-02-28T08:24:35.873Z,24.67
2019-02-28T08:27:04.363Z,33.40
2019-02-28T08:29:32.012Z,29.60
2019-02-28T08:31:59.669Z,27.87
2019-02-28T08:34:27.321Z,29.30
2019-02-28T08:36:54.972Z,29.60
2019-02-28T08:39:22.657Z,31.53
2019-02-28T08:41:50.365Z,33.47
2019-02-28T08:44:22.775Z,31.23
2019-02-28T08:46:47.384Z,27.70
2019-02-28T08:49:15.038Z,31.13
2019-02-28T08:51:43.275Z,28.10
2019-02-28T08:54:11.144Z,30.93
2019-02-28T08:56:38.799Z,30.77
2019-02-28T08:59:11.790Z,33.33
2019-02-28T09:01:40.049Z,33.10
2019-02-28T09:04:05.844Z,34.40
2019-02-28T09:06:33.617Z,35.50
2019-02-28T09:09:01.266Z,30.30
2019-02-28T09:11:28.923Z,33.47
2019-02-28T09:13:56.571Z,29.10
2019-02-28T09:16:24.257Z,35.53
2019-02-28T09:18:51.919Z,28.30
2019-02-28T09:21:19.573Z,32.00
2019-02-28T09:23:47.230Z,32.20
2019-02-28T09:26:14.887Z,30.20
2019-02-28T09:28:44.454Z,29.10
2019-02-28T09:31:11.905Z,34.80
2019-02-28T09:33:39.561Z,33.33
2019-02-28T09:36:07.221Z,32.67
2019-02-28T09:38:34.879Z,32.67
2019-02-28T09:41:04.509Z,34.40
2019-02-28T09:43:31.897Z,28.00
2019-02-28T09:45:59.560Z,35.80
2019-02-28T09:48:27.207Z,36.10
2019-02-28T09:50:58.221Z,30.33
2019-02-28T09:53:24.227Z,30.47
2019-02-28T09:55:51.892Z,31.77
2019-02-28T09:58:19.545Z,33.70
2019-02-28T10:00:50.214Z,32.37
2019-02-28T10:03:18.624Z,32.57
2019-02-28T10:05:45.949Z,26.83
2019-02-28T10:08:13.607Z,31.07
2019-02-28T10:10:41.256Z,34.13
2019-02-28T10:13:08.899Z,32.33
2019-02-28T10:15:38.668Z,31.57
2019-02-28T10:18:05.975Z,30.03
2019-02-28T10:20:33.751Z,31.07
2019-02-28T10:23:01.419Z,27.53
2019-02-28T10:25:29.193Z,32.77
2019-02-28T10:28:01.702Z,31.40
2019-02-28T10:30:31.840Z,38.43
2019-02-28T10:32:55.593Z,30.03
2019-02-28T10:35:23.251Z,35.67
2019-02-28T10:37:50.923Z,35.23
2019-02-28T10:40:18.750Z,36.73
2019-02-28T10:42:46.517Z,35.07
2019-02-28T10:45:14.168Z,32.33
2019-02-28T10:47:41.821Z,35.77
2019-02-28T10:50:09.467Z,33.77
2019-02-28T10:52:37.136Z,34.73
2019-02-28T10:55:04.800Z,33.70
2019-02-28T10:57:32.598Z,39.73
2019-02-28T11:00:00.299Z,37.57
2019-02-28T11:02:27.972Z,34.13
2019-02-28T11:04:55.614Z,32.97
2019-02-28T11:07:23.272Z,37.70
2019-02-28T11:09:51.031Z,33.17
2019-02-28T11:12:20.285Z,31.53
2019-02-28T11:14:48.080Z,34.83
2019-02-28T11:17:15.742Z,30.63
2019-02-28T11:19:43.390Z,30.53
2019-02-28T11:22:11.058Z,29.43
2019-02-28T11:24:38.710Z,29.47
2019-02-28T11:27:06.375Z,29.97
2019-02-28T11:29:35.102Z,30.50
2019-02-28T11:32:03.404Z,31.10
2019-02-28T11:34:31.091Z,32.03
2019-02-28T11:36:58.791Z,32.63
2019-02-28T11:39:27.631Z,30.77
2019-02-28T11:41:55.951Z,33.77
2019-02-28T11:44:23.616Z,33.53
2019-02-28T11:46:51.343Z,33.70
2019-02-28T11:49:19.003Z,31.97
2019-02-28T11:51:49.359Z,31.83
2019-02-28T11:54:16.088Z,27.63
2019-02-28T11:56:43.754Z,35.23
2019-02-28T11:59:11.423Z,32.87
2019-02-28T12:01:39.095Z,30.03
2019-02-28T12:04:06.752Z,31.90
2019-02-28T12:06:34.421Z,34.60
2019-02-28T12:09:02.107Z,28.80
2019-02-28T12:11:29.781Z,34.47
2019-02-28T12:13:57.439Z,34.60
2019-02-28T12:16:25.116Z,31.40
2019-02-28T12:18:52.779Z,32.13
2019-02-28T12:21:20.459Z,32.23
2019-02-28T12:23:48.145Z,32.77
2019-02-28T12:26:17.811Z,33.63
2019-02-28T12:28:45.190Z,32.63
2019-02-28T12:31:12.851Z,31.40
2019-02-28T12:33:40.496Z,29.63
2019-02-28T12:36:08.138Z,30.33
2019-02-28T12:38:35.854Z,34.57
2019-02-28T12:41:03.500Z,30.33
2019-02-28T12:43:31.171Z,33.23
2019-02-28T12:46:00.143Z,31.60
2019-02-28T12:48:28.365Z,30.80
2019-02-28T12:50:55.999Z,39.87
2019-02-28T12:53:25.293Z,27.63
2019-02-28T12:55:53.139Z,31.57
2019-02-28T12:58:20.832Z,34.20
2019-02-28T13:00:48.670Z,34.00
2019-02-28T13:03:20.225Z,32.03
2019-02-28T13:05:48.045Z,32.83
2019-02-28T13:08:15.079Z,32.70
2019-02-28T13:10:42.762Z,40.07
2019-02-28T13:13:10.419Z,35.37
2019-02-28T13:15:38.096Z,32.97
2019-02-28T13:18:09.075Z,36.17
2019-02-28T13:20:36.570Z,28.70
2019-02-28T13:23:04.418Z,33.93
2019-02-28T13:25:32.111Z,35.07
2019-02-28T13:27:59.883Z,40.23
2019-02-28T13:30:27.958Z,35.07
2019-02-28T13:32:55.916Z,36.73
2019-02-28T13:35:23.576Z,32.50
2019-02-28T13:37:51.240Z,33.77
2019-02-28T13:40:18.905Z,34.40
2019-02-28T13:42:46.584Z,35.40
2019-02-28T13:45:22.147Z,40.83
2019-02-28T13:47:46.277Z,38.33
2019-02-28T13:50:13.050Z,31.63
2019-02-28T13:52:40.780Z,35.23
2019-02-28T13:55:08.458Z,37.97
2019-02-28T13:57:36.219Z,39.07
2019-02-28T14:00:08.023Z,40.43
2019-02-28T14:02:33.826Z,40.43
2019-02-28T14:05:03.046Z,40.83
2019-02-28T14:07:33.775Z,33.67
2019-02-28T14:10:00.545Z,43.30
2019-02-28T14:12:28.904Z,37.43
2019-02-28T14:14:56.720Z,39.47
2019-02-28T14:17:24.397Z,40.07
2019-02-28T14:19:52.728Z,41.17
2019-02-28T14:22:21.267Z,39.03
2019-02-28T14:24:48.932Z,38.90
2019-02-28T14:27:16.599Z,39.07
2019-02-28T14:29:48.347Z,37.57
2019-02-28T14:32:13.920Z,34.90
2019-02-28T14:34:41.591Z,38.63
2019-02-28T14:37:09.233Z,34.93
2019-02-28T14:39:39.813Z,37.27
2019-02-28T14:42:06.750Z,36.97
2019-02-28T14:44:35.610Z,40.43
2019-02-28T14:47:03.268Z,38.93
2019-02-28T14:49:31.012Z,36.87
2019-02-28T14:52:00.413Z,38.40
2019-02-28T14:54:28.020Z,36.77
2019-02-28T14:56:55.683Z,40.10
2019-02-28T14:59:23.333Z,37.27
2019-02-28T15:01:53.050Z,39.87
2019-02-28T15:04:20.499Z,37.07
2019-02-28T15:06:48.159Z,36.23
2019-02-28T15:09:15.917Z,40.47
2019-02-28T15:11:46.688Z,40.30
2019-02-28T15:14:12.984Z,41.43
2019-02-28T15:16:40.722Z,39.50
2019-02-28T15:19:08.387Z,41.53
2019-02-28T15:21:36.046Z,40.07
2019-02-28T15:24:05.433Z,41.43
2019-02-28T15:26:33.194Z,45.83
2019-02-28T15:29:01.007Z,42.13
2019-02-28T15:31:28.702Z,42.37
2019-02-28T15:33:56.372Z,42.80
2019-02-28T15:36:24.987Z,43.63
2019-02-28T15:38:52.769Z,41.30
2019-02-28T15:41:20.428Z,39.87
2019-02-28T15:43:50.315Z,43.30
2019-02-28T15:46:17.480Z,41.53
2019-02-28T15:48:45.156Z,44.90
2019-02-28T15:51:12.813Z,44.47
2019-02-28T15:53:40.475Z,45.30
2019-02-28T15:56:13.458Z,42.13
2019-02-28T15:58:37.690Z,44.17
2019-02-28T16:01:06.849Z,43.67
2019-02-28T16:03:34.515Z,45.60
2019-02-28T16:06:02.164Z,44.07
2019-02-28T16:08:29.844Z,46.93
2019-02-28T16:10:57.577Z,45.20
2019-02-28T16:13:25.884Z,44.20
2019-02-28T16:15:54.236Z,43.97
2019-02-28T16:18:21.888Z,50.23
2019-02-28T16:20:49.558Z,44.93
2019-02-28T16:23:17.239Z,43.93
2019-02-28T16:25:46.807Z,46.50
2019-02-28T16:28:14.262Z,48.90
2019-02-28T16:30:41.916Z,46.70
2019-02-28T16:33:09.567Z,41.80
2019-02-28T16:35:37.228Z,44.80
2019-02-28T16:38:06.562Z,49.40
2019-02-28T16:40:34.301Z,46.53
2019-02-28T16:43:01.955Z,46.67
2019-02-28T16:45:40.791Z,42.53
2019-02-28T16:48:09.561Z,48.83
2019-02-28T16:50:37.215Z,42.13
2019-02-28T16:53:04.881Z,45.47
2019-02-28T16:55:32.599Z,47.00
2019-02-28T16:58:00.255Z,48.80
2019-02-28T17:00:27.906Z,51.57
2019-02-28T17:02:55.560Z,47.33
2019-02-28T17:05:26.641Z,50.93
2019-02-28T17:07:52.573Z,48.03
2019-02-28T17:10:23.502Z,46.27
2019-02-28T17:13:04.318Z,46.27
2019-02-28T17:15:43.127Z,45.27
2019-02-28T17:18:14.632Z,49.57
2019-02-28T17:20:42.297Z,49.87
2019-02-28T17:23:09.988Z,44.23
2019-02-28T17:25:37.646Z,47.23
2019-02-28T17:28:25.239Z,51.70
2019-02-28T17:31:08.391Z,47.77
2019-02-28T17:33:35.362Z,46.20
2019-02-28T17:36:03.025Z,49.73
2019-02-28T17:38:32.233Z,50.30
2019-02-28T17:41:01.885Z,46.97
2019-02-28T17:43:29.420Z,51.87
2019-02-28T17:45:57.077Z,50.50
2019-02-28T17:48:24.944Z,47.90
2019-02-28T17:50:52.623Z,48.93
2019-02-28T17:53:20.266Z,47.33
2019-02-28T17:55:47.939Z,50.00
2019-02-28T17:58:15.594Z,49.97
2019-02-28T18:00:48.169Z,50.83
2019-02-28T18:03:16.980Z,49.00
2019-02-28T18:05:44.639Z,45.33
2019-02-28T18:08:12.309Z,46.77
2019-02-28T18:10:39.967Z,50.30
2019-02-28T18:13:07.618Z,43.10
2019-02-28T18:15:35.271Z,51.30
2019-02-28T18:18:05.466Z,44.30
2019-02-28T18:20:32.347Z,47.93
2019-02-28T18:23:00.057Z,41.73
2019-02-28T18:25:29.517Z,41.43
2019-02-28T18:27:57.078Z,48.73
2019-02-28T18:30:24.731Z,45.03
2019-02-28T18:32:52.384Z,45.47
2019-02-28T18:35:20.049Z,47.57
2019-02-28T18:37:47.716Z,45.23
2019-02-28T18:40:15.379Z,45.17
2019-02-28T18:42:43.036Z,49.30
2019-02-28T18:45:10.687Z,47.13
2019-02-28T18:47:39.669Z,43.43
2019-02-28T18:50:07.696Z,44.73
2019-02-28T18:52:35.408Z,44.37
2019-02-28T18:55:06.093Z,51.50
2019-02-28T18:57:32.464Z,44.53
2019-02-28T19:00:00.297Z,46.13
2019-02-28T19:02:28.039Z,47.33
2019-02-28T19:04:55.702Z,47.77
2019-02-28T19:07:23.363Z,48.97
2019-02-28T19:09:51.012Z,44.80
2019-02-28T19:12:18.656Z,55.33
2019-02-28T19:14:46.303Z,46.03
2019-02-28T19:17:13.960Z,44.57
2019-02-28T19:19:41.676Z,45.30
2019-02-28T19:22:09.322Z,51.40
2019-02-28T19:24:36.984Z,47.47
2019-02-28T19:27:04.643Z,49.40
2019-02-28T19:29:32.296Z,42.53
2019-02-28T19:31:59.956Z,44.53
2019-02-28T19:34:27.614Z,50.03
2019-02-28T19:36:55.263Z,40.70
2019-02-28T19:39:22.907Z,41.07
2019-02-28T19:41:50.555Z,43.73
2019-02-28T19:44:18.200Z,42.30
2019-02-28T19:46:45.868Z,42.93
2019-02-28T19:49:13.537Z,41.60
2019-02-28T19:51:41.256Z,45.07
2019-02-28T19:54:08.905Z,40.47
2019-02-28T19:56:36.547Z,49.83
2019-02-28T19:59:04.200Z,42.30
2019-02-28T20:01:31.851Z,40.70
2019-02-28T20:03:59.505Z,41.50
2019-02-28T20:06:27.162Z,46.50
2019-02-28T20:08:54.803Z,48.47
2019-02-28T20:11:22.748Z,41.33
2019-02-28T20:13:50.396Z,41.17
2019-02-28T20:16:18.111Z,46.80
2019-02-28T20:18:45.777Z,45.23
2019-02-28T20:21:13.438Z,38.47
2019-02-28T20:23:41.087Z,44.53
2019-02-28T20:26:08.743Z,41.27
2019-02-28T20:28:36.388Z,48.33
2019-02-28T20:31:04.037Z,44.00
2019-02-28T20:33:31.779Z,41.27
2019-02-28T20:35:59.451Z,38.10
2019-02-28T20:38:27.090Z,44.93
2019-02-28T20:40:54.736Z,45.03
2019-02-28T20:43:22.409Z,47.33
2019-02-28T20:45:50.061Z,43.23
2019-02-28T20:48:18.112Z,39.23
2019-02-28T20:50:46.338Z,49.07
2019-02-28T20:53:14.108Z,46.50
2019-02-28T20:55:41.751Z,42.63
2019-02-28T20:58:09.406Z,50.90
2019-02-28T21:00:37.058Z,44.47
2019-02-28T21:03:04.723Z,50.13
2019-02-28T21:05:32.370Z,45.87
2019-02-28T21:08:00.023Z,48.00
2019-02-28T21:10:27.676Z,47.13
2019-02-28T21:12:55.322Z,44.53
2019-02-28T21:15:24.702Z,43.40
2019-02-28T21:17:52.376Z,42.70
2019-02-28T21:20:20.029Z,47.87
2019-02-28T21:22:47.904Z,47.10
2019-02-28T21:25:15.710Z,48.30
2019-02-28T21:27:43.355Z,44.43
2019-02-28T21:30:11.001Z,51.03
2019-02-28T21:32:38.655Z,48.87
2019-02-28T21:35:06.389Z,47.90
2019-02-28T21:37:34.037Z,50.77
2019-02-28T21:40:01.680Z,54.30
2019-02-28T21:42:29.331Z,51.23
2019-02-28T21:44:56.976Z,49.97
2019-02-28T21:47:24.635Z,53.47
2019-02-28T21:49:52.307Z,49.60
2019-02-28T21:52:19.947Z,54.97
2019-02-28T21:54:47.598Z,56.17
2019-02-28T21:57:15.239Z,57.83
2019-02-28T21:59:42.880Z,54.40
2019-02-28T22:02:10.519Z,57.57
2019-02-28T22:04:38.174Z,56.33
2019-02-28T22:07:05.833Z,53.83
2019-02-28T22:09:33.481Z,60.57
2019-02-28T22:12:01.128Z,57.67
2019-02-28T22:14:28.774Z,55.07
2019-02-28T22:16:56.423Z,64.37
2019-02-28T22:19:24.086Z,57.73
2019-02-28T22:21:51.731Z,59.07
2019-02-28T22:24:19.394Z,56.50
2019-02-28T22:26:47.043Z,57.57
2019-02-28T22:29:14.692Z,57.23
2019-02-28T22:31:51.626Z,56.43
2019-02-28T22:34:25.979Z,59.80
2019-02-28T22:36:53.795Z,57.17
2019-02-28T22:39:21.443Z,58.40
2019-02-28T22:41:49.120Z,60.87
2019-02-28T22:44:16.764Z,61.40
2019-02-28T22:46:44.405Z,57.37
2019-02-28T22:49:12.043Z,60.37
2019-02-28T22:51:39.692Z,59.83
2019-02-28T22:54:07.403Z,58.77
2019-02-28T22:56:35.047Z,58.27
2019-02-28T22:59:02.721Z,57.93
2019-02-28T23:01:30.552Z,59.30
2019-02-28T23:03:58.203Z,57.63
2019-02-28T23:06:25.844Z,56.33
2019-02-28T23:08:53.508Z,62.20
2019-02-28T23:11:21.164Z,63.10
2019-02-28T23:13:48.910Z,66.63
2019-02-28T23:16:16.557Z,61.03
2019-02-28T23:18:44.205Z,69.43
2019-02-28T23:21:11.850Z,57.23
2019-02-28T23:23:39.504Z,66.43
2019-02-28T23:26:07.171Z,59.80
2019-02-28T23:28:34.922Z,61.50
2019-02-28T23:31:02.581Z,67.83
2019-02-28T23:33:30.231Z,65.93
2019-02-28T23:35:57.880Z,64.37
2019-02-28T23:38:25.539Z,64.10
2019-02-28T23:40:53.256Z,65.57
2019-02-28T23:43:20.907Z,63.00
2019-02-28T23:45:48.562Z,70.30
2019-02-28T23:48:16.210Z,68.30
2019-02-28T23:50:43.852Z,73.53
2019-02-28T23:53:11.506Z,63.07
2019-02-28T23:55:39.163Z,63.70
2019-02-28T23:58:06.814Z,67.97
